DAE149 KEWR-EHAM
Flight info
| Callsign | DAE149 |
|---|---|
| Flight time | N/A |
| Altitude | 29000 |
| Route | MERIT DCT HFD DCT PUT DCT BOS DCT BRADD N261B NICSO/M084F310 DCT 48N050W 50N040W 52N030W 53N020W DCT MALOT DCT GISTI/N0490F310 DCT BOFUM Q37 MALUD UL975 WAL M16 DOLAS L603 LAMSO |
| Aircraft | B77L/H-SDE1E2E3FGHIJ2J3J4J5M1RWXY/LB1D1 |
Departure
| Time | 2026-04-23 20:24 |
|---|---|
| Airport | Newark Liberty International Airport (KEWR) |
Arrival
| Time | N/A |
|---|---|
| Airport | Amsterdam Airport Schiphol (EHAM) |
| Time | Latitude | Longitude | Altitude | Speed | Heading |
|---|---|---|---|---|---|
| 2026-04-23 19:32 | 40.67688 | -74.18372 | 35 ft | 0 kts | 206° |
| 2026-04-23 20:12 | 40.67691 | -74.18370 | 35 ft | 2 kts | 206° |
| 2026-04-23 20:12 | 40.67705 | -74.18361 | 35 ft | 2 kts | 206° |
| 2026-04-23 20:12 | 40.67719 | -74.18353 | 35 ft | 2 kts | 205° |
| 2026-04-23 20:13 | 40.67730 | -74.18345 | 35 ft | 1 kts | 237° |
| 2026-04-23 20:13 | 40.67736 | -74.18328 | 35 ft | 2 kts | 246° |
| 2026-04-23 20:13 | 40.67743 | -74.18310 | 35 ft | 2 kts | 241° |
| 2026-04-23 20:13 | 40.67750 | -74.18292 | 35 ft | 2 kts | 240° |
| 2026-04-23 20:14 | 40.67757 | -74.18276 | 35 ft | 2 kts | 228° |
| 2026-04-23 20:14 | 40.67769 | -74.18265 | 35 ft | 2 kts | 201° |
| 2026-04-23 20:14 | 40.67783 | -74.18257 | 35 ft | 2 kts | 204° |
| 2026-04-23 20:14 | 40.67797 | -74.18249 | 35 ft | 2 kts | 206° |
| 2026-04-23 20:15 | 40.67806 | -74.18243 | 35 ft | 0 kts | 206° |
| 2026-04-23 20:20 | 40.67805 | -74.18243 | 35 ft | 0 kts | 206° |
| 2026-04-23 20:20 | 40.67791 | -74.18253 | 35 ft | 3 kts | 206° |
| 2026-04-23 20:20 | 40.67763 | -74.18267 | 35 ft | 5 kts | 189° |
| 2026-04-23 20:21 | 40.67725 | -74.18247 | 35 ft | 7 kts | 132° |
| 2026-04-23 20:21 | 40.67696 | -74.18182 | 35 ft | 9 kts | 115° |
| 2026-04-23 20:21 | 40.67650 | -74.18116 | 35 ft | 10 kts | 144° |
| 2026-04-23 20:21 | 40.67603 | -74.18052 | 34 ft | 8 kts | 130° |
| 2026-04-23 20:22 | 40.67570 | -74.17994 | 35 ft | 7 kts | 119° |
| 2026-04-23 20:22 | 40.67554 | -74.17940 | 34 ft | 4 kts | 88° |
| 2026-04-23 20:22 | 40.67569 | -74.17923 | 34 ft | 2 kts | 24° |
| 2026-04-23 20:22 | 40.67584 | -74.17914 | 34 ft | 4 kts | 24° |
| 2026-04-23 20:23 | 40.67686 | -74.17851 | 34 ft | 39 kts | 25° |
| 2026-04-23 20:23 | 40.68139 | -74.17566 | 35 ft | 103 kts | 27° |
| 2026-04-23 20:23 | 40.68949 | -74.17047 | 35 ft | 157 kts | 25° |
| 2026-04-23 20:23 | 40.70050 | -74.16308 | 174 ft | 188 kts | 27° |
| 2026-04-23 20:24 | 40.71167 | -74.15408 | 737 ft | 192 kts | 28° |
| 2026-04-23 20:24 | 40.72221 | -74.14291 | 1433 ft | 194 kts | 39° |
| 2026-04-23 20:24 | 40.73161 | -74.13075 | 1980 ft | 193 kts | 40° |
| 2026-04-23 20:24 | 40.74124 | -74.11817 | 2441 ft | 195 kts | 40° |
| 2026-04-23 20:25 | 40.75086 | -74.10575 | 2904 ft | 196 kts | 40° |
| 2026-04-23 20:25 | 40.76071 | -74.09287 | 3269 ft | 204 kts | 40° |
| 2026-04-23 20:25 | 40.77126 | -74.07918 | 3469 ft | 222 kts | 39° |
| 2026-04-23 20:25 | 40.78268 | -74.06441 | 3724 ft | 239 kts | 40° |
| 2026-04-23 20:26 | 40.79479 | -74.04882 | 4131 ft | 251 kts | 40° |
| 2026-04-23 20:26 | 40.80763 | -74.03239 | 4535 ft | 264 kts | 39° |
| 2026-04-23 20:26 | 40.82106 | -74.01524 | 5080 ft | 273 kts | 39° |
| 2026-04-23 20:26 | 40.83488 | -73.99759 | 5661 ft | 281 kts | 41° |
| 2026-04-23 20:27 | 40.84787 | -73.97842 | 6402 ft | 283 kts | 45° |
| 2026-04-23 20:27 | 40.86071 | -73.95848 | 7047 ft | 287 kts | 44° |
| 2026-04-23 20:27 | 40.87363 | -73.93831 | 7798 ft | 287 kts | 43° |
| 2026-04-23 20:27 | 40.88648 | -73.91822 | 8536 ft | 288 kts | 41° |
| 2026-04-23 20:28 | 40.89932 | -73.89817 | 9198 ft | 289 kts | 40° |
| 2026-04-23 20:28 | 40.91242 | -73.87771 | 9799 ft | 292 kts | 39° |
| 2026-04-23 20:28 | 40.92556 | -73.85719 | 10377 ft | 295 kts | 40° |
| 2026-04-23 20:28 | 40.93875 | -73.83657 | 10992 ft | 297 kts | 39° |
| 2026-04-23 20:29 | 40.95214 | -73.81565 | 11457 ft | 305 kts | 39° |
| 2026-04-23 20:29 | 40.96625 | -73.79373 | 11653 ft | 322 kts | 40° |
| 2026-04-23 20:29 | 40.98129 | -73.77035 | 11806 ft | 341 kts | 40° |
| 2026-04-23 20:29 | 40.99718 | -73.74562 | 11991 ft | 359 kts | 41° |
| 2026-04-23 20:30 | 41.01354 | -73.72006 | 12231 ft | 375 kts | 41° |
| 2026-04-23 20:30 | 41.04848 | -73.66528 | 13016 ft | 398 kts | 41° |
| 2026-04-23 20:30 | 41.06630 | -73.63723 | 13741 ft | 400 kts | 41° |
| 2026-04-23 20:31 | 41.08426 | -73.60893 | 14424 ft | 403 kts | 41° |
| 2026-04-23 20:31 | 41.10228 | -73.58052 | 15046 ft | 406 kts | 41° |
| 2026-04-23 20:31 | 41.12068 | -73.55151 | 15619 ft | 412 kts | 41° |
| 2026-04-23 20:31 | 41.13900 | -73.52258 | 16316 ft | 413 kts | 41° |
| 2026-04-23 20:32 | 41.15746 | -73.49340 | 16960 ft | 416 kts | 41° |
| 2026-04-23 20:32 | 41.17617 | -73.46383 | 17474 ft | 422 kts | 40° |
| 2026-04-23 20:32 | 41.19519 | -73.43374 | 18104 ft | 424 kts | 40° |
| 2026-04-23 20:32 | 41.21407 | -73.40382 | 18767 ft | 425 kts | 40° |
| 2026-04-23 20:33 | 41.23313 | -73.37363 | 19266 ft | 431 kts | 40° |
| 2026-04-23 20:33 | 41.25250 | -73.34293 | 19808 ft | 435 kts | 41° |
| 2026-04-23 20:33 | 41.27215 | -73.31178 | 20269 ft | 440 kts | 41° |
| 2026-04-23 20:33 | 41.29175 | -73.28065 | 20852 ft | 442 kts | 41° |
| 2026-04-23 20:34 | 41.31137 | -73.24946 | 21461 ft | 443 kts | 41° |
| 2026-04-23 20:34 | 41.33116 | -73.21802 | 21951 ft | 446 kts | 41° |
| 2026-04-23 20:34 | 41.35114 | -73.18628 | 22365 ft | 451 kts | 41° |
| 2026-04-23 20:34 | 41.37139 | -73.15408 | 22793 ft | 456 kts | 42° |
| 2026-04-23 20:35 | 41.38976 | -73.11932 | 23236 ft | 470 kts | 49° |
| 2026-04-23 20:35 | 41.40660 | -73.08173 | 23833 ft | 471 kts | 50° |
| 2026-04-23 20:35 | 41.42303 | -73.04455 | 24288 ft | 474 kts | 50° |
| 2026-04-23 20:35 | 41.43985 | -73.00641 | 24727 ft | 477 kts | 50° |
| 2026-04-23 20:36 | 41.45660 | -72.96838 | 25240 ft | 478 kts | 50° |
| 2026-04-23 20:36 | 41.47334 | -72.93038 | 25638 ft | 481 kts | 50° |
| 2026-04-23 20:36 | 41.49030 | -72.89188 | 25879 ft | 488 kts | 50° |
| 2026-04-23 20:36 | 41.50738 | -72.85301 | 26376 ft | 489 kts | 49° |
| 2026-04-23 20:37 | 41.52452 | -72.81389 | 26936 ft | 488 kts | 49° |
| 2026-04-23 20:37 | 41.54167 | -72.77477 | 27333 ft | 491 kts | 49° |
| 2026-04-23 20:37 | 41.55890 | -72.73543 | 27752 ft | 494 kts | 49° |
| 2026-04-23 20:37 | 41.57625 | -72.69578 | 28141 ft | 497 kts | 49° |
| 2026-04-23 20:38 | 41.59372 | -72.65577 | 28571 ft | 499 kts | 49° |
| 2026-04-23 20:38 | 41.61124 | -72.61559 | 28887 ft | 500 kts | 49° |
| 2026-04-23 20:38 | 41.64591 | -72.53585 | 28892 ft | 492 kts | 48° |
| 2026-04-23 20:39 | 41.68121 | -72.45763 | 28895 ft | 495 kts | 47° |
| 2026-04-23 20:39 | 41.71672 | -72.37899 | 28889 ft | 495 kts | 47° |
| 2026-04-23 20:40 | 41.75190 | -72.30073 | 28877 ft | 495 kts | 47° |
| 2026-04-23 20:40 | 41.78762 | -72.22115 | 28877 ft | 500 kts | 47° |
| 2026-04-23 20:41 | 41.82290 | -72.14206 | 28869 ft | 492 kts | 47° |
| 2026-04-23 20:41 | 41.85802 | -72.06329 | 28872 ft | 491 kts | 47° |
| 2026-04-23 20:42 | 41.89256 | -71.98556 | 28884 ft | 491 kts | 47° |
| 2026-04-23 20:42 | 41.92768 | -71.90642 | 28880 ft | 492 kts | 47° |
| 2026-04-23 20:43 | 41.96245 | -71.82792 | 28870 ft | 487 kts | 45° |
| 2026-04-23 20:43 | 41.99922 | -71.75095 | 29170 ft | 497 kts | 45° |
| 2026-04-23 20:44 | 42.01776 | -71.71214 | 29715 ft | 496 kts | 44° |
| 2026-04-23 20:44 | 42.03612 | -71.67354 | 30453 ft | 489 kts | 44° |
| 2026-04-23 20:44 | 42.05453 | -71.63483 | 30827 ft | 490 kts | 44° |
| 2026-04-23 20:44 | 42.07270 | -71.59651 | 30860 ft | 484 kts | 44° |
| 2026-04-23 20:45 | 42.10855 | -71.52077 | 30883 ft | 481 kts | 44° |
| 2026-04-23 20:45 | 42.14454 | -71.44462 | 30895 ft | 484 kts | 44° |
| 2026-04-23 20:46 | 42.18040 | -71.36840 | 30888 ft | 483 kts | 43° |
| 2026-04-23 20:46 | 42.21595 | -71.29262 | 30876 ft | 483 kts | 44° |
| 2026-04-23 20:47 | 42.25182 | -71.21598 | 30873 ft | 481 kts | 44° |
| 2026-04-23 20:47 | 42.28731 | -71.13997 | 30870 ft | 482 kts | 44° |
| 2026-04-23 20:48 | 42.32289 | -71.06354 | 30882 ft | 483 kts | 43° |
| 2026-04-23 20:48 | 42.35601 | -70.98502 | 30885 ft | 494 kts | 53° |
| 2026-04-23 20:49 | 42.36776 | -70.94012 | 30886 ft | 512 kts | 59° |
| 2026-04-23 20:49 | 42.37801 | -70.89423 | 30878 ft | 517 kts | 59° |
| 2026-04-23 20:49 | 42.39836 | -70.80071 | 30877 ft | 516 kts | 59° |
| 2026-04-23 20:50 | 42.41840 | -70.70803 | 30873 ft | 517 kts | 59° |
| 2026-04-23 20:50 | 42.43856 | -70.61457 | 30868 ft | 519 kts | 59° |
| 2026-04-23 20:51 | 42.45836 | -70.52197 | 30874 ft | 514 kts | 59° |
| 2026-04-23 20:51 | 42.47823 | -70.42899 | 30875 ft | 514 kts | 59° |
| 2026-04-23 20:52 | 42.49784 | -70.33662 | 30868 ft | 509 kts | 60° |
| 2026-04-23 20:52 | 42.51745 | -70.24424 | 30861 ft | 515 kts | 60° |
| 2026-04-23 20:53 | 42.53700 | -70.15137 | 30862 ft | 516 kts | 60° |
| 2026-04-23 20:53 | 42.55677 | -70.05731 | 30862 ft | 520 kts | 60° |
| 2026-04-23 20:54 | 42.57614 | -69.96413 | 30852 ft | 511 kts | 60° |
| 2026-04-23 20:54 | 42.59535 | -69.87174 | 30851 ft | 512 kts | 59° |
| 2026-04-23 20:55 | 42.61475 | -69.77815 | 30852 ft | 515 kts | 60° |
| 2026-04-23 20:55 | 42.63382 | -69.68529 | 30853 ft | 508 kts | 60° |
| 2026-04-23 20:56 | 42.65282 | -69.59287 | 30856 ft | 513 kts | 60° |
| 2026-04-23 20:56 | 42.67177 | -69.49997 | 30844 ft | 511 kts | 60° |
| 2026-04-23 20:57 | 42.69070 | -69.40693 | 30853 ft | 514 kts | 61° |
| 2026-04-23 20:57 | 42.70959 | -69.31356 | 30834 ft | 518 kts | 62° |
| 2026-04-23 20:58 | 42.72857 | -69.21918 | 30832 ft | 515 kts | 62° |
| 2026-04-23 20:58 | 42.74739 | -69.12530 | 30821 ft | 517 kts | 62° |
| 2026-04-23 20:59 | 42.76593 | -69.03204 | 30814 ft | 513 kts | 63° |
| 2026-04-23 20:59 | 42.78461 | -68.93816 | 30830 ft | 517 kts | 63° |
| 2026-04-23 21:00 | 42.80321 | -68.84404 | 30837 ft | 519 kts | 63° |
| 2026-04-23 21:00 | 42.82173 | -68.74970 | 30848 ft | 517 kts | 63° |
| 2026-04-23 21:01 | 42.84020 | -68.65541 | 30859 ft | 518 kts | 64° |
| 2026-04-23 21:01 | 42.85862 | -68.56065 | 30823 ft | 514 kts | 64° |
| 2026-04-23 21:02 | 42.87687 | -68.46672 | 30851 ft | 521 kts | 65° |
| 2026-04-23 21:02 | 42.89515 | -68.37174 | 30845 ft | 516 kts | 65° |
| 2026-04-23 21:03 | 42.91337 | -68.27685 | 30833 ft | 516 kts | 66° |
| 2026-04-23 21:03 | 42.93138 | -68.18259 | 30838 ft | 520 kts | 66° |
| 2026-04-23 21:04 | 42.94951 | -68.08717 | 30828 ft | 518 kts | 67° |
| 2026-04-23 21:04 | 42.96744 | -67.99236 | 30830 ft | 520 kts | 67° |
| 2026-04-23 21:05 | 42.98528 | -67.89757 | 30826 ft | 518 kts | 68° |
| 2026-04-23 21:05 | 43.00302 | -67.80274 | 30821 ft | 517 kts | 67° |
| 2026-04-23 21:06 | 43.02067 | -67.70805 | 30827 ft | 517 kts | 68° |
| 2026-04-23 21:06 | 43.03831 | -67.61292 | 30830 ft | 519 kts | 68° |
| 2026-04-23 21:07 | 43.05596 | -67.51721 | 30806 ft | 518 kts | 68° |
| 2026-04-23 21:07 | 43.07346 | -67.42183 | 30817 ft | 520 kts | 68° |
| 2026-04-23 21:08 | 43.09087 | -67.32645 | 30800 ft | 519 kts | 69° |
| 2026-04-23 21:08 | 43.10823 | -67.23090 | 30811 ft | 520 kts | 69° |
| 2026-04-23 21:09 | 43.12551 | -67.13524 | 30807 ft | 517 kts | 69° |
| 2026-04-23 21:09 | 43.14259 | -67.04025 | 30804 ft | 520 kts | 69° |
| 2026-04-23 21:10 | 43.16730 | -66.94960 | 30794 ft | 503 kts | 55° |
| 2026-04-23 21:10 | 43.19996 | -66.86547 | 30808 ft | 502 kts | 55° |
| 2026-04-23 21:11 | 43.23251 | -66.78113 | 30811 ft | 503 kts | 55° |
| 2026-04-23 21:11 | 43.26488 | -66.69637 | 30813 ft | 502 kts | 55° |
| 2026-04-23 21:12 | 43.29703 | -66.61160 | 30815 ft | 504 kts | 56° |
| 2026-04-23 21:12 | 43.32901 | -66.52685 | 30819 ft | 502 kts | 56° |
| 2026-04-23 21:13 | 43.36095 | -66.44185 | 30819 ft | 503 kts | 56° |
| 2026-04-23 21:13 | 43.39281 | -66.35674 | 30823 ft | 503 kts | 56° |
| 2026-04-23 21:14 | 43.42478 | -66.27107 | 30817 ft | 503 kts | 57° |
| 2026-04-23 21:14 | 43.45641 | -66.18604 | 30816 ft | 504 kts | 57° |
| 2026-04-23 21:15 | 43.48819 | -66.10031 | 30810 ft | 503 kts | 57° |
| 2026-04-23 21:15 | 43.51997 | -66.01433 | 30804 ft | 504 kts | 57° |
| 2026-04-23 21:16 | 43.55139 | -65.92902 | 30800 ft | 504 kts | 57° |
| 2026-04-23 21:16 | 43.58321 | -65.84241 | 30801 ft | 504 kts | 58° |
| 2026-04-23 21:17 | 43.61457 | -65.75674 | 30807 ft | 503 kts | 58° |
| 2026-04-23 21:17 | 43.64597 | -65.67075 | 30812 ft | 505 kts | 58° |
| 2026-04-23 21:18 | 43.67724 | -65.58480 | 30812 ft | 503 kts | 58° |
| 2026-04-23 21:18 | 43.70867 | -65.49818 | 30813 ft | 503 kts | 58° |
| 2026-04-23 21:19 | 43.73989 | -65.41183 | 30814 ft | 504 kts | 58° |
| 2026-04-23 21:19 | 43.77088 | -65.32586 | 30811 ft | 504 kts | 59° |
| 2026-04-23 21:20 | 43.80204 | -65.23916 | 30808 ft | 504 kts | 59° |
| 2026-04-23 21:20 | 43.83310 | -65.15248 | 30810 ft | 504 kts | 60° |
| 2026-04-23 21:21 | 43.86393 | -65.06614 | 30811 ft | 503 kts | 60° |
| 2026-04-23 21:21 | 43.89478 | -64.97948 | 30809 ft | 503 kts | 60° |
| 2026-04-23 21:22 | 43.92549 | -64.89297 | 30812 ft | 503 kts | 60° |
| 2026-04-23 21:22 | 43.95623 | -64.80607 | 30812 ft | 503 kts | 60° |
| 2026-04-23 21:23 | 43.98700 | -64.71879 | 30819 ft | 503 kts | 60° |
| 2026-04-23 21:23 | 44.01758 | -64.63181 | 30829 ft | 502 kts | 60° |
| 2026-04-23 21:24 | 44.04801 | -64.54496 | 30835 ft | 503 kts | 60° |
| 2026-04-23 21:24 | 44.07850 | -64.45767 | 30836 ft | 503 kts | 61° |
| 2026-04-23 21:25 | 44.10874 | -64.37080 | 30841 ft | 502 kts | 61° |
| 2026-04-23 21:25 | 44.13906 | -64.28346 | 30840 ft | 503 kts | 62° |
| 2026-04-23 21:26 | 44.16924 | -64.19621 | 30840 ft | 502 kts | 62° |
| 2026-04-23 21:26 | 44.19925 | -64.10915 | 30838 ft | 501 kts | 62° |
| 2026-04-23 21:27 | 44.22929 | -64.02174 | 30837 ft | 501 kts | 62° |
| 2026-04-23 21:27 | 44.25928 | -63.93422 | 30838 ft | 502 kts | 62° |
| 2026-04-23 21:28 | 44.28910 | -63.84689 | 30837 ft | 501 kts | 62° |
| 2026-04-23 21:28 | 44.31895 | -63.75918 | 30837 ft | 501 kts | 62° |
| 2026-04-23 21:29 | 44.34882 | -63.67115 | 30834 ft | 502 kts | 63° |
| 2026-04-23 21:29 | 44.37840 | -63.58366 | 30832 ft | 502 kts | 63° |
| 2026-04-23 21:30 | 44.40815 | -63.49541 | 30829 ft | 502 kts | 63° |
| 2026-04-23 21:30 | 44.43763 | -63.40765 | 30822 ft | 501 kts | 63° |
| 2026-04-23 21:31 | 44.46722 | -63.31927 | 30815 ft | 502 kts | 64° |
| 2026-04-23 21:31 | 44.49649 | -63.23157 | 30814 ft | 502 kts | 64° |
| 2026-04-23 21:32 | 44.52602 | -63.14279 | 30815 ft | 502 kts | 64° |
| 2026-04-23 21:32 | 44.55527 | -63.05454 | 30820 ft | 501 kts | 64° |
| 2026-04-23 21:33 | 44.58444 | -62.96625 | 30827 ft | 501 kts | 64° |
| 2026-04-23 21:33 | 44.61356 | -62.87781 | 30833 ft | 501 kts | 64° |
| 2026-04-23 21:34 | 44.64265 | -62.78919 | 30829 ft | 502 kts | 64° |
| 2026-04-23 21:34 | 44.67163 | -62.70058 | 30833 ft | 503 kts | 64° |
| 2026-04-23 21:35 | 44.70066 | -62.61154 | 30833 ft | 502 kts | 64° |
| 2026-04-23 21:35 | 44.72958 | -62.52251 | 30831 ft | 502 kts | 65° |
| 2026-04-23 21:36 | 44.77284 | -62.38880 | 30833 ft | 501 kts | 65° |
| 2026-04-23 21:37 | 44.80147 | -62.29994 | 30828 ft | 502 kts | 65° |
| 2026-04-23 21:37 | 44.83018 | -62.21051 | 30828 ft | 502 kts | 65° |
| 2026-04-23 21:38 | 44.85874 | -62.12125 | 30826 ft | 501 kts | 66° |
| 2026-04-23 21:38 | 44.88712 | -62.03223 | 30825 ft | 501 kts | 66° |
| 2026-04-23 21:39 | 44.91541 | -61.94320 | 30826 ft | 500 kts | 66° |
| 2026-04-23 21:39 | 44.94378 | -61.85361 | 30825 ft | 501 kts | 66° |
| 2026-04-23 21:40 | 44.97201 | -61.76413 | 30827 ft | 502 kts | 66° |
| 2026-04-23 21:40 | 45.00024 | -61.67437 | 30829 ft | 502 kts | 66° |
| 2026-04-23 21:41 | 45.02857 | -61.58399 | 30830 ft | 503 kts | 66° |
| 2026-04-23 21:41 | 45.05669 | -61.49396 | 30827 ft | 502 kts | 66° |
| 2026-04-23 21:42 | 45.08467 | -61.40404 | 30821 ft | 502 kts | 66° |
| 2026-04-23 21:42 | 45.11253 | -61.31421 | 30815 ft | 502 kts | 67° |
| 2026-04-23 21:43 | 45.14056 | -61.22350 | 30813 ft | 502 kts | 68° |
| 2026-04-23 21:43 | 45.16834 | -61.13327 | 30816 ft | 502 kts | 68° |
| 2026-04-23 21:44 | 45.19604 | -61.04299 | 30816 ft | 501 kts | 68° |
| 2026-04-23 21:44 | 45.22365 | -60.95269 | 30816 ft | 501 kts | 68° |
| 2026-04-23 21:45 | 45.25123 | -60.86218 | 30817 ft | 502 kts | 68° |
| 2026-04-23 21:45 | 45.27880 | -60.77136 | 30818 ft | 502 kts | 68° |
| 2026-04-23 21:46 | 45.30624 | -60.68066 | 30820 ft | 502 kts | 68° |
| 2026-04-23 21:46 | 45.33362 | -60.58980 | 30820 ft | 502 kts | 68° |
| 2026-04-23 21:47 | 45.36102 | -60.49857 | 30820 ft | 503 kts | 68° |
| 2026-04-23 21:47 | 45.38820 | -60.40774 | 30822 ft | 503 kts | 68° |
| 2026-04-23 21:48 | 45.41543 | -60.31641 | 30818 ft | 502 kts | 69° |
| 2026-04-23 21:48 | 45.44246 | -60.22543 | 30821 ft | 502 kts | 69° |
| 2026-04-23 21:49 | 45.46948 | -60.13415 | 30821 ft | 502 kts | 69° |
| 2026-04-23 21:49 | 45.49652 | -60.04247 | 30833 ft | 502 kts | 69° |
| 2026-04-23 21:50 | 45.52350 | -59.95065 | 30834 ft | 503 kts | 69° |
| 2026-04-23 21:50 | 45.55019 | -59.85948 | 30842 ft | 503 kts | 69° |
| 2026-04-23 21:51 | 45.57707 | -59.76731 | 30840 ft | 503 kts | 69° |
| 2026-04-23 21:51 | 45.60365 | -59.67584 | 30832 ft | 502 kts | 69° |
| 2026-04-23 21:52 | 45.63031 | -59.58375 | 30838 ft | 503 kts | 69° |
| 2026-04-23 21:52 | 45.65684 | -59.49178 | 30840 ft | 502 kts | 69° |
| 2026-04-23 21:53 | 45.68333 | -59.39961 | 30840 ft | 503 kts | 69° |
| 2026-04-23 21:53 | 45.70975 | -59.30733 | 30842 ft | 503 kts | 70° |
| 2026-04-23 21:54 | 45.73605 | -59.21514 | 30844 ft | 504 kts | 70° |
| 2026-04-23 21:54 | 45.76251 | -59.12200 | 30840 ft | 504 kts | 70° |
| 2026-04-23 21:55 | 45.78867 | -59.02962 | 30841 ft | 504 kts | 70° |
| 2026-04-23 21:55 | 45.81479 | -58.93697 | 30840 ft | 504 kts | 70° |
| 2026-04-23 21:56 | 45.84102 | -58.84360 | 30836 ft | 505 kts | 70° |
| 2026-04-23 21:56 | 45.86700 | -58.75074 | 30856 ft | 505 kts | 70° |
| 2026-04-23 21:57 | 45.89307 | -58.65726 | 30844 ft | 505 kts | 70° |
| 2026-04-23 21:57 | 45.91891 | -58.56418 | 30855 ft | 506 kts | 70° |
| 2026-04-23 21:58 | 45.94474 | -58.47081 | 30846 ft | 505 kts | 70° |
| 2026-04-23 21:58 | 45.97058 | -58.37703 | 30849 ft | 505 kts | 70° |
| 2026-04-23 21:59 | 45.99622 | -58.28364 | 30861 ft | 505 kts | 71° |
| 2026-04-23 21:59 | 46.02196 | -58.18950 | 30855 ft | 506 kts | 71° |
| 2026-04-23 22:00 | 46.06026 | -58.04871 | 30861 ft | 508 kts | 71° |
| 2026-04-23 22:00 | 46.08572 | -57.95466 | 30851 ft | 506 kts | 71° |
| 2026-04-23 22:01 | 46.11115 | -57.86036 | 30851 ft | 505 kts | 71° |
| 2026-04-23 22:01 | 46.13655 | -57.76580 | 30841 ft | 506 kts | 71° |
| 2026-04-23 22:02 | 46.16169 | -57.67185 | 30843 ft | 505 kts | 71° |
| 2026-04-23 22:02 | 46.18689 | -57.57725 | 30838 ft | 506 kts | 71° |
| 2026-04-23 22:03 | 46.21190 | -57.48301 | 30844 ft | 508 kts | 71° |
| 2026-04-23 22:03 | 46.23689 | -57.38847 | 30851 ft | 505 kts | 71° |
| 2026-04-23 22:04 | 46.26191 | -57.29342 | 30833 ft | 507 kts | 72° |
| 2026-04-23 22:04 | 46.28682 | -57.19844 | 30837 ft | 506 kts | 72° |
| 2026-04-23 22:05 | 46.31148 | -57.10400 | 30848 ft | 505 kts | 72° |
| 2026-04-23 22:05 | 46.33617 | -57.00906 | 30847 ft | 506 kts | 72° |
| 2026-04-23 22:06 | 46.36078 | -56.91404 | 30854 ft | 504 kts | 72° |
| 2026-04-23 22:06 | 46.38530 | -56.81898 | 30845 ft | 506 kts | 72° |
| 2026-04-23 22:07 | 46.40955 | -56.72459 | 30846 ft | 504 kts | 72° |
| 2026-04-23 22:07 | 46.43383 | -56.62968 | 30847 ft | 504 kts | 72° |
| 2026-04-23 22:08 | 46.45801 | -56.53480 | 30875 ft | 505 kts | 72° |
| 2026-04-23 22:08 | 46.48228 | -56.43911 | 30851 ft | 503 kts | 72° |
| 2026-04-23 22:09 | 46.50637 | -56.34380 | 30837 ft | 505 kts | 73° |
| 2026-04-23 22:09 | 46.53018 | -56.24918 | 30841 ft | 501 kts | 73° |
| 2026-04-23 22:10 | 46.55407 | -56.15380 | 30813 ft | 504 kts | 73° |
| 2026-04-23 22:10 | 46.57777 | -56.05882 | 30867 ft | 504 kts | 73° |
| 2026-04-23 22:11 | 46.60140 | -55.96374 | 30838 ft | 501 kts | 73° |
| 2026-04-23 22:11 | 46.62487 | -55.86890 | 30865 ft | 503 kts | 73° |
| 2026-04-23 22:12 | 46.64847 | -55.77309 | 30860 ft | 500 kts | 73° |
| 2026-04-23 22:12 | 46.67173 | -55.67831 | 30861 ft | 500 kts | 73° |
| 2026-04-23 22:13 | 46.69490 | -55.58344 | 30855 ft | 502 kts | 73° |
| 2026-04-23 22:13 | 46.71808 | -55.48819 | 30855 ft | 499 kts | 73° |
| 2026-04-23 22:14 | 46.74110 | -55.39316 | 30866 ft | 497 kts | 73° |
| 2026-04-23 22:14 | 46.76405 | -55.29802 | 30833 ft | 497 kts | 73° |
| 2026-04-23 22:15 | 46.78669 | -55.20376 | 30837 ft | 497 kts | 73° |
| 2026-04-23 22:15 | 46.80949 | -55.10838 | 30853 ft | 498 kts | 74° |
| 2026-04-23 22:16 | 46.83215 | -55.01323 | 30820 ft | 498 kts | 73° |
| 2026-04-23 22:16 | 46.85463 | -54.91842 | 30817 ft | 497 kts | 73° |
| 2026-04-23 22:17 | 46.87708 | -54.82332 | 30839 ft | 496 kts | 73° |
| 2026-04-23 22:17 | 46.89936 | -54.72852 | 30835 ft | 495 kts | 73° |
| 2026-04-23 22:18 | 46.92168 | -54.63314 | 30821 ft | 497 kts | 73° |
| 2026-04-23 22:18 | 46.94387 | -54.53790 | 30827 ft | 495 kts | 73° |
| 2026-04-23 22:19 | 46.96594 | -54.44276 | 30812 ft | 497 kts | 73° |
| 2026-04-23 22:19 | 46.98788 | -54.34774 | 30822 ft | 496 kts | 74° |
| 2026-04-23 22:20 | 47.00974 | -54.25269 | 30830 ft | 494 kts | 74° |
| 2026-04-23 22:20 | 47.03149 | -54.15767 | 30832 ft | 494 kts | 74° |
| 2026-04-23 22:21 | 47.05333 | -54.06186 | 30804 ft | 496 kts | 74° |
| 2026-04-23 22:21 | 47.07491 | -53.96674 | 30787 ft | 496 kts | 74° |
| 2026-04-23 22:22 | 47.09648 | -53.87127 | 30799 ft | 495 kts | 75° |
| 2026-04-23 22:22 | 47.11820 | -53.77462 | 30823 ft | 505 kts | 73° |
| 2026-04-23 22:23 | 47.14003 | -53.67709 | 30809 ft | 503 kts | 73° |
| 2026-04-23 22:23 | 47.16179 | -53.57944 | 30808 ft | 504 kts | 74° |
| 2026-04-23 22:24 | 47.18340 | -53.48201 | 30811 ft | 502 kts | 74° |
| 2026-04-23 22:24 | 47.20481 | -53.38503 | 30792 ft | 501 kts | 74° |
| 2026-04-23 22:25 | 47.22610 | -53.28813 | 30798 ft | 501 kts | 75° |
| 2026-04-23 22:25 | 47.24738 | -53.19084 | 30803 ft | 500 kts | 75° |
| 2026-04-23 22:26 | 47.26849 | -53.09385 | 30798 ft | 502 kts | 75° |
| 2026-04-23 22:26 | 47.28969 | -52.99598 | 30776 ft | 503 kts | 75° |
| 2026-04-23 22:27 | 47.31070 | -52.89861 | 30783 ft | 500 kts | 76° |
| 2026-04-23 22:27 | 47.33160 | -52.80118 | 30781 ft | 499 kts | 76° |
| 2026-04-23 22:28 | 47.35242 | -52.70372 | 30789 ft | 501 kts | 76° |
| 2026-04-23 22:28 | 47.37302 | -52.60683 | 30805 ft | 499 kts | 76° |
| 2026-04-23 22:29 | 47.39361 | -52.50950 | 30800 ft | 499 kts | 76° |
| 2026-04-23 22:29 | 47.41402 | -52.41259 | 30811 ft | 498 kts | 76° |
| 2026-04-23 22:30 | 47.43430 | -52.31583 | 30816 ft | 494 kts | 77° |
| 2026-04-23 22:30 | 47.45439 | -52.21954 | 30817 ft | 488 kts | 77° |
| 2026-04-23 22:31 | 47.47433 | -52.12344 | 30816 ft | 494 kts | 77° |
| 2026-04-23 22:31 | 47.49425 | -52.02699 | 30811 ft | 494 kts | 77° |
| 2026-04-23 22:32 | 47.51754 | -51.93202 | 30797 ft | 493 kts | 73° |
| 2026-04-23 22:32 | 47.54185 | -51.83851 | 30804 ft | 484 kts | 73° |
| 2026-04-23 22:33 | 47.56572 | -51.74627 | 30814 ft | 483 kts | 73° |
| 2026-04-23 22:33 | 47.58952 | -51.65391 | 30818 ft | 484 kts | 73° |
| 2026-04-23 22:34 | 47.61333 | -51.56121 | 30823 ft | 479 kts | 73° |
| 2026-04-23 22:34 | 47.63694 | -51.46888 | 30816 ft | 477 kts | 73° |
| 2026-04-23 22:35 | 47.66014 | -51.37779 | 30814 ft | 476 kts | 73° |
| 2026-04-23 22:35 | 47.68333 | -51.28635 | 30812 ft | 473 kts | 74° |
| 2026-04-23 22:36 | 47.70633 | -51.19535 | 30816 ft | 471 kts | 74° |
| 2026-04-23 22:36 | 47.72903 | -51.10512 | 30816 ft | 470 kts | 74° |
| 2026-04-23 22:37 | 47.75181 | -51.01419 | 30823 ft | 472 kts | 74° |
| 2026-04-23 22:37 | 47.77442 | -50.92367 | 30828 ft | 467 kts | 74° |
| 2026-04-23 22:38 | 47.79689 | -50.83325 | 30818 ft | 468 kts | 74° |
| 2026-04-23 22:38 | 47.81922 | -50.74310 | 30824 ft | 466 kts | 74° |
| 2026-04-23 22:39 | 47.84151 | -50.65271 | 30827 ft | 466 kts | 74° |
| 2026-04-23 22:39 | 47.86379 | -50.56199 | 30819 ft | 465 kts | 74° |
| 2026-04-23 22:40 | 47.88580 | -50.47204 | 30824 ft | 466 kts | 74° |
| 2026-04-23 22:41 | 47.91870 | -50.33686 | 30826 ft | 464 kts | 75° |
| 2026-04-23 22:41 | 47.94051 | -50.24680 | 30818 ft | 463 kts | 75° |
| 2026-04-23 22:42 | 47.96208 | -50.15739 | 30814 ft | 460 kts | 75° |
| 2026-04-23 22:42 | 47.98374 | -50.06717 | 30818 ft | 462 kts | 75° |
| 2026-04-23 22:43 | 48.00539 | -49.97706 | 30825 ft | 464 kts | 74° |
| 2026-04-23 22:43 | 48.02789 | -49.88800 | 30814 ft | 460 kts | 74° |
| 2026-04-23 22:44 | 48.05051 | -49.79817 | 30824 ft | 462 kts | 74° |
| 2026-04-23 22:44 | 48.07278 | -49.70926 | 30818 ft | 460 kts | 74° |
| 2026-04-23 22:45 | 48.09514 | -49.61953 | 30823 ft | 463 kts | 74° |
| 2026-04-23 22:45 | 48.11749 | -49.52948 | 30809 ft | 461 kts | 74° |
| 2026-04-23 22:46 | 48.13970 | -49.43956 | 30812 ft | 464 kts | 74° |
| 2026-04-23 22:46 | 48.16183 | -49.34962 | 30804 ft | 462 kts | 75° |
| 2026-04-23 22:47 | 48.18385 | -49.25976 | 30816 ft | 462 kts | 75° |
| 2026-04-23 22:47 | 48.20590 | -49.16938 | 30812 ft | 464 kts | 75° |
| 2026-04-23 22:48 | 48.22780 | -49.07930 | 30814 ft | 463 kts | 75° |
| 2026-04-23 22:48 | 48.24979 | -48.98845 | 30814 ft | 462 kts | 75° |
| 2026-04-23 22:49 | 48.27151 | -48.89834 | 30815 ft | 461 kts | 75° |
| 2026-04-23 22:49 | 48.29334 | -48.80738 | 30802 ft | 464 kts | 75° |
| 2026-04-23 22:50 | 48.31493 | -48.71709 | 30803 ft | 465 kts | 75° |
| 2026-04-23 22:50 | 48.33672 | -48.62555 | 30788 ft | 465 kts | 75° |
| 2026-04-23 22:51 | 48.35826 | -48.53468 | 30795 ft | 466 kts | 75° |
| 2026-04-23 22:51 | 48.37993 | -48.44290 | 30790 ft | 466 kts | 75° |
| 2026-04-23 22:52 | 48.40139 | -48.35160 | 30784 ft | 466 kts | 75° |
| 2026-04-23 22:52 | 48.42281 | -48.26011 | 30793 ft | 467 kts | 76° |
| 2026-04-23 22:53 | 48.44431 | -48.16787 | 30795 ft | 467 kts | 76° |
| 2026-04-23 22:53 | 48.46568 | -48.07583 | 30796 ft | 466 kts | 76° |
| 2026-04-23 22:54 | 48.48694 | -47.98385 | 30793 ft | 468 kts | 75° |
| 2026-04-23 22:54 | 48.50806 | -47.89204 | 30781 ft | 468 kts | 76° |
| 2026-04-23 22:55 | 48.52936 | -47.79908 | 30775 ft | 470 kts | 76° |
| 2026-04-23 22:55 | 48.55040 | -47.70691 | 30779 ft | 469 kts | 76° |
| 2026-04-23 22:56 | 48.57160 | -47.61358 | 30778 ft | 469 kts | 76° |
| 2026-04-23 22:56 | 48.59254 | -47.52098 | 30772 ft | 471 kts | 75° |
| 2026-04-23 22:57 | 48.61357 | -47.42756 | 30763 ft | 471 kts | 75° |
| 2026-04-23 22:57 | 48.63466 | -47.33351 | 30756 ft | 473 kts | 76° |
| 2026-04-23 22:58 | 48.65555 | -47.23991 | 30767 ft | 473 kts | 76° |
| 2026-04-23 22:58 | 48.67643 | -47.14591 | 30768 ft | 473 kts | 76° |
| 2026-04-23 22:59 | 48.69727 | -47.05172 | 30760 ft | 474 kts | 76° |
| 2026-04-23 22:59 | 48.71811 | -46.95702 | 30767 ft | 475 kts | 76° |
| 2026-04-23 23:00 | 48.73877 | -46.86282 | 30757 ft | 475 kts | 76° |
| 2026-04-23 23:00 | 48.75944 | -46.76804 | 30762 ft | 476 kts | 76° |
| 2026-04-23 23:01 | 48.78004 | -46.67319 | 30764 ft | 477 kts | 76° |
| 2026-04-23 23:01 | 48.80065 | -46.57786 | 30757 ft | 478 kts | 76° |
| 2026-04-23 23:02 | 48.82119 | -46.48241 | 30761 ft | 479 kts | 76° |
| 2026-04-23 23:02 | 48.84167 | -46.38680 | 30765 ft | 478 kts | 76° |
| 2026-04-23 23:03 | 48.86207 | -46.29111 | 30776 ft | 478 kts | 76° |
| 2026-04-23 23:03 | 48.88248 | -46.19487 | 30778 ft | 480 kts | 76° |
| 2026-04-23 23:04 | 48.90273 | -46.09899 | 30780 ft | 481 kts | 76° |
| 2026-04-23 23:04 | 48.92310 | -46.00212 | 30783 ft | 481 kts | 76° |
| 2026-04-23 23:05 | 48.94333 | -45.90541 | 30780 ft | 482 kts | 76° |
| 2026-04-23 23:05 | 48.96341 | -45.80892 | 30783 ft | 482 kts | 76° |
| 2026-04-23 23:06 | 48.98355 | -45.71168 | 30780 ft | 483 kts | 76° |
| 2026-04-23 23:06 | 49.00363 | -45.61427 | 30771 ft | 485 kts | 76° |
| 2026-04-23 23:07 | 49.02362 | -45.51683 | 30764 ft | 485 kts | 76° |
| 2026-04-23 23:07 | 49.04352 | -45.41937 | 30762 ft | 485 kts | 76° |
| 2026-04-23 23:08 | 49.06342 | -45.32139 | 30765 ft | 485 kts | 76° |
| 2026-04-23 23:08 | 49.08322 | -45.22339 | 30761 ft | 487 kts | 77° |
| 2026-04-23 23:09 | 49.10308 | -45.12466 | 30768 ft | 487 kts | 76° |
| 2026-04-23 23:09 | 49.12274 | -45.02639 | 30759 ft | 487 kts | 76° |
| 2026-04-23 23:10 | 49.14243 | -44.92752 | 30769 ft | 489 kts | 76° |
| 2026-04-23 23:10 | 49.16197 | -44.82887 | 30761 ft | 489 kts | 76° |
| 2026-04-23 23:11 | 49.18158 | -44.72935 | 30763 ft | 489 kts | 76° |
| 2026-04-23 23:11 | 49.20099 | -44.63034 | 30760 ft | 491 kts | 76° |
| 2026-04-23 23:12 | 49.22049 | -44.53038 | 30769 ft | 493 kts | 76° |
| 2026-04-23 23:12 | 49.23994 | -44.43010 | 30767 ft | 494 kts | 76° |
| 2026-04-23 23:13 | 49.25932 | -44.32970 | 30771 ft | 493 kts | 76° |
| 2026-04-23 23:13 | 49.27851 | -44.22976 | 30777 ft | 494 kts | 76° |
| 2026-04-23 23:14 | 49.29784 | -44.12857 | 30771 ft | 495 kts | 76° |
| 2026-04-23 23:14 | 49.31684 | -44.02853 | 30783 ft | 495 kts | 76° |
| 2026-04-23 23:15 | 49.33593 | -43.92750 | 30784 ft | 495 kts | 76° |
| 2026-04-23 23:15 | 49.35495 | -43.82630 | 30787 ft | 497 kts | 76° |
| 2026-04-23 23:16 | 49.37406 | -43.72401 | 30781 ft | 498 kts | 75° |
| 2026-04-23 23:16 | 49.39292 | -43.62250 | 30780 ft | 499 kts | 75° |
| 2026-04-23 23:17 | 49.41186 | -43.52006 | 30776 ft | 500 kts | 75° |
| 2026-04-23 23:17 | 49.43070 | -43.41764 | 30774 ft | 499 kts | 75° |
| 2026-04-23 23:18 | 49.44936 | -43.31556 | 30769 ft | 500 kts | 76° |
| 2026-04-23 23:18 | 49.46804 | -43.21279 | 30774 ft | 502 kts | 76° |
| 2026-04-23 23:19 | 49.48670 | -43.10953 | 30769 ft | 502 kts | 76° |
| 2026-04-23 23:19 | 49.50518 | -43.00671 | 30768 ft | 504 kts | 75° |
| 2026-04-23 23:20 | 49.52361 | -42.90359 | 30774 ft | 503 kts | 75° |
| 2026-04-23 23:20 | 49.54200 | -42.80009 | 30769 ft | 503 kts | 75° |
| 2026-04-23 23:21 | 49.56033 | -42.69636 | 30769 ft | 503 kts | 75° |
| 2026-04-23 23:21 | 49.57853 | -42.59275 | 30764 ft | 503 kts | 75° |
| 2026-04-23 23:22 | 49.59663 | -42.48910 | 30760 ft | 504 kts | 75° |
| 2026-04-23 23:22 | 49.61467 | -42.38514 | 30756 ft | 503 kts | 75° |
| 2026-04-23 23:23 | 49.63251 | -42.28175 | 30754 ft | 504 kts | 75° |
| 2026-04-23 23:23 | 49.65044 | -42.17730 | 30757 ft | 503 kts | 75° |
| 2026-04-23 23:24 | 49.66813 | -42.07354 | 30749 ft | 504 kts | 75° |
| 2026-04-23 23:24 | 49.68583 | -41.96909 | 30752 ft | 505 kts | 75° |
| 2026-04-23 23:25 | 49.70351 | -41.86419 | 30751 ft | 507 kts | 75° |
| 2026-04-23 23:25 | 49.72103 | -41.75953 | 30749 ft | 506 kts | 75° |
| 2026-04-23 23:26 | 49.73843 | -41.65499 | 30750 ft | 507 kts | 74° |
| 2026-04-23 23:26 | 49.75589 | -41.54942 | 30744 ft | 507 kts | 74° |
| 2026-04-23 23:27 | 49.77325 | -41.44384 | 30745 ft | 508 kts | 74° |
| 2026-04-23 23:27 | 49.79050 | -41.33819 | 30751 ft | 509 kts | 75° |
| 2026-04-23 23:28 | 49.80773 | -41.23208 | 30748 ft | 510 kts | 75° |
| 2026-04-23 23:28 | 49.82486 | -41.12592 | 30750 ft | 511 kts | 74° |
| 2026-04-23 23:29 | 49.84187 | -41.01976 | 30748 ft | 511 kts | 74° |
| 2026-04-23 23:29 | 49.85885 | -40.91315 | 30742 ft | 513 kts | 74° |
| 2026-04-23 23:30 | 49.87573 | -40.80650 | 30732 ft | 514 kts | 74° |
| 2026-04-23 23:30 | 49.89252 | -40.69966 | 30730 ft | 511 kts | 74° |
| 2026-04-23 23:31 | 49.90926 | -40.59248 | 30730 ft | 512 kts | 74° |
| 2026-04-23 23:31 | 49.92590 | -40.48521 | 30731 ft | 512 kts | 74° |
| 2026-04-23 23:32 | 49.94233 | -40.37858 | 30728 ft | 512 kts | 73° |
| 2026-04-23 23:32 | 49.95879 | -40.27104 | 30721 ft | 512 kts | 74° |
| 2026-04-23 23:33 | 49.97504 | -40.16419 | 30720 ft | 513 kts | 74° |
| 2026-04-23 23:33 | 49.99134 | -40.05627 | 30715 ft | 511 kts | 74° |
| 2026-04-23 23:34 | 50.00877 | -39.94956 | 30711 ft | 509 kts | 68° |
| 2026-04-23 23:34 | 50.03512 | -39.84901 | 30716 ft | 506 kts | 64° |
| 2026-04-23 23:35 | 50.06166 | -39.74802 | 30716 ft | 503 kts | 65° |
| 2026-04-23 23:35 | 50.08745 | -39.64743 | 30708 ft | 504 kts | 65° |
| 2026-04-23 23:36 | 50.11283 | -39.54675 | 30717 ft | 500 kts | 65° |
| 2026-04-23 23:36 | 50.13782 | -39.44649 | 30710 ft | 500 kts | 66° |
| 2026-04-23 23:37 | 50.16251 | -39.34664 | 30710 ft | 496 kts | 67° |
| 2026-04-23 23:37 | 50.18711 | -39.24650 | 30694 ft | 493 kts | 67° |
| 2026-04-23 23:38 | 50.21132 | -39.14740 | 30688 ft | 489 kts | 67° |
| 2026-04-23 23:38 | 50.23541 | -39.04829 | 30682 ft | 491 kts | 67° |
| 2026-04-23 23:39 | 50.25939 | -38.94915 | 30686 ft | 489 kts | 67° |
| 2026-04-23 23:39 | 50.28314 | -38.85048 | 30681 ft | 485 kts | 67° |
| 2026-04-23 23:40 | 50.30676 | -38.75189 | 30671 ft | 482 kts | 67° |
| 2026-04-23 23:40 | 50.33001 | -38.65445 | 30677 ft | 480 kts | 67° |
| 2026-04-23 23:41 | 50.35307 | -38.55733 | 30680 ft | 477 kts | 68° |
| 2026-04-23 23:41 | 50.37601 | -38.46029 | 30661 ft | 475 kts | 68° |
| 2026-04-23 23:42 | 50.39869 | -38.36391 | 30654 ft | 472 kts | 68° |
| 2026-04-23 23:42 | 50.42138 | -38.26709 | 30674 ft | 474 kts | 69° |
| 2026-04-23 23:43 | 50.44382 | -38.17083 | 30665 ft | 472 kts | 69° |
| 2026-04-23 23:43 | 50.46610 | -38.07491 | 30659 ft | 469 kts | 69° |
| 2026-04-23 23:44 | 50.48827 | -37.97899 | 30651 ft | 469 kts | 69° |
| 2026-04-23 23:44 | 50.51041 | -37.88277 | 30666 ft | 469 kts | 69° |
| 2026-04-23 23:45 | 50.53245 | -37.78653 | 30654 ft | 469 kts | 69° |
| 2026-04-23 23:45 | 50.55434 | -37.69056 | 30645 ft | 469 kts | 69° |
| 2026-04-23 23:46 | 50.57605 | -37.59489 | 30644 ft | 467 kts | 69° |
| 2026-04-23 23:46 | 50.59778 | -37.49874 | 30640 ft | 468 kts | 69° |
| 2026-04-23 23:47 | 50.61936 | -37.40277 | 30639 ft | 465 kts | 69° |
| 2026-04-23 23:47 | 50.64082 | -37.30693 | 30640 ft | 467 kts | 70° |
| 2026-04-23 23:48 | 50.66215 | -37.21125 | 30638 ft | 466 kts | 70° |
| 2026-04-23 23:48 | 50.68352 | -37.11494 | 30629 ft | 465 kts | 70° |
| 2026-04-23 23:49 | 50.71518 | -36.97142 | 30623 ft | 465 kts | 69° |
| 2026-04-23 23:49 | 50.73621 | -36.87551 | 30611 ft | 463 kts | 69° |
| 2026-04-23 23:50 | 50.75710 | -36.77981 | 30607 ft | 462 kts | 69° |
| 2026-04-23 23:50 | 50.77787 | -36.68422 | 30610 ft | 462 kts | 70° |
| 2026-04-23 23:51 | 50.79859 | -36.58841 | 30604 ft | 462 kts | 69° |
| 2026-04-23 23:51 | 50.81920 | -36.49266 | 30599 ft | 460 kts | 69° |
| 2026-04-23 23:52 | 50.83957 | -36.39762 | 30597 ft | 459 kts | 69° |
| 2026-04-23 23:52 | 50.85986 | -36.30246 | 30599 ft | 459 kts | 70° |
| 2026-04-23 23:53 | 50.88017 | -36.20679 | 30600 ft | 459 kts | 70° |
| 2026-04-23 23:53 | 50.90026 | -36.11169 | 30595 ft | 458 kts | 70° |
| 2026-04-23 23:54 | 50.92031 | -36.01635 | 30597 ft | 458 kts | 70° |
| 2026-04-23 23:54 | 50.94031 | -35.92075 | 30605 ft | 459 kts | 69° |
| 2026-04-23 23:55 | 50.96019 | -35.82532 | 30603 ft | 458 kts | 69° |
| 2026-04-23 23:55 | 50.98006 | -35.72945 | 30598 ft | 456 kts | 69° |
| 2026-04-23 23:56 | 50.99962 | -35.63466 | 30593 ft | 457 kts | 69° |
| 2026-04-23 23:56 | 51.01927 | -35.53892 | 30587 ft | 456 kts | 69° |
| 2026-04-23 23:57 | 51.03875 | -35.44359 | 30583 ft | 456 kts | 69° |
| 2026-04-23 23:57 | 51.05819 | -35.34800 | 30583 ft | 457 kts | 70° |
| 2026-04-23 23:58 | 51.07765 | -35.25179 | 30584 ft | 457 kts | 69° |
| 2026-04-23 23:58 | 51.09700 | -35.15568 | 30573 ft | 456 kts | 69° |
| 2026-04-23 23:59 | 51.11611 | -35.06033 | 30577 ft | 457 kts | 69° |
| 2026-04-23 23:59 | 51.13524 | -34.96441 | 30581 ft | 456 kts | 69° |
| 2026-04-24 00:00 | 51.15438 | -34.86794 | 30577 ft | 457 kts | 69° |
| 2026-04-24 00:00 | 51.17333 | -34.77194 | 30579 ft | 458 kts | 69° |
| 2026-04-24 00:01 | 51.19225 | -34.67561 | 30583 ft | 456 kts | 69° |
| 2026-04-24 00:01 | 51.21095 | -34.57997 | 30593 ft | 456 kts | 69° |
| 2026-04-24 00:02 | 51.22975 | -34.48327 | 30593 ft | 456 kts | 69° |
| 2026-04-24 00:02 | 51.24840 | -34.38692 | 30589 ft | 457 kts | 69° |
| 2026-04-24 00:03 | 51.26700 | -34.29030 | 30594 ft | 457 kts | 70° |
| 2026-04-24 00:03 | 51.28553 | -34.19358 | 30589 ft | 458 kts | 70° |
| 2026-04-24 00:04 | 51.30388 | -34.09725 | 30586 ft | 457 kts | 70° |
| 2026-04-24 00:04 | 51.32226 | -34.00030 | 30589 ft | 456 kts | 70° |
| 2026-04-24 00:05 | 51.34054 | -33.90337 | 30577 ft | 457 kts | 70° |
| 2026-04-24 00:05 | 51.35870 | -33.80655 | 30593 ft | 457 kts | 70° |
| 2026-04-24 00:06 | 51.37681 | -33.70953 | 30581 ft | 457 kts | 70° |
| 2026-04-24 00:06 | 51.39481 | -33.61257 | 30576 ft | 455 kts | 70° |
| 2026-04-24 00:07 | 51.41275 | -33.51548 | 30573 ft | 456 kts | 70° |
| 2026-04-24 00:07 | 51.43051 | -33.41881 | 30563 ft | 457 kts | 70° |
| 2026-04-24 00:08 | 51.44832 | -33.32141 | 30569 ft | 456 kts | 71° |
| 2026-04-24 00:08 | 51.46614 | -33.22341 | 30550 ft | 457 kts | 71° |
| 2026-04-24 00:09 | 51.48373 | -33.12614 | 30552 ft | 457 kts | 71° |
| 2026-04-24 00:09 | 51.50119 | -33.02903 | 30561 ft | 457 kts | 71° |
| 2026-04-24 00:10 | 51.51873 | -32.93105 | 30551 ft | 458 kts | 71° |
| 2026-04-24 00:10 | 51.53614 | -32.83317 | 30541 ft | 458 kts | 71° |
| 2026-04-24 00:11 | 51.55347 | -32.73526 | 30539 ft | 458 kts | 71° |
| 2026-04-24 00:11 | 51.57067 | -32.63753 | 30552 ft | 457 kts | 71° |
| 2026-04-24 00:12 | 51.58785 | -32.53940 | 30539 ft | 456 kts | 71° |
| 2026-04-24 00:12 | 51.60487 | -32.44159 | 30541 ft | 456 kts | 71° |
| 2026-04-24 00:13 | 51.62186 | -32.34343 | 30548 ft | 455 kts | 72° |
| 2026-04-24 00:13 | 51.63869 | -32.24572 | 30538 ft | 456 kts | 72° |
| 2026-04-24 00:14 | 51.65551 | -32.14746 | 30553 ft | 456 kts | 72° |
| 2026-04-24 00:14 | 51.67223 | -32.04929 | 30535 ft | 456 kts | 72° |
| 2026-04-24 00:15 | 51.68888 | -31.95089 | 30542 ft | 457 kts | 72° |
| 2026-04-24 00:15 | 51.70530 | -31.85333 | 30526 ft | 457 kts | 73° |
| 2026-04-24 00:16 | 51.72177 | -31.75494 | 30522 ft | 456 kts | 73° |
| 2026-04-24 00:16 | 51.73812 | -31.65669 | 30525 ft | 457 kts | 73° |
| 2026-04-24 00:17 | 51.75446 | -31.55798 | 30530 ft | 456 kts | 73° |
| 2026-04-24 00:17 | 51.77070 | -31.45926 | 30497 ft | 459 kts | 74° |
| 2026-04-24 00:18 | 51.78702 | -31.35944 | 30514 ft | 457 kts | 74° |
| 2026-04-24 00:18 | 51.80312 | -31.26047 | 30508 ft | 460 kts | 75° |
| 2026-04-24 00:19 | 51.81921 | -31.16089 | 30513 ft | 459 kts | 75° |
| 2026-04-24 00:19 | 51.83518 | -31.06149 | 30509 ft | 459 kts | 75° |
| 2026-04-24 00:20 | 51.85108 | -30.96194 | 30520 ft | 460 kts | 75° |
| 2026-04-24 00:20 | 51.86694 | -30.86199 | 30517 ft | 462 kts | 75° |
| 2026-04-24 00:21 | 51.88278 | -30.76160 | 30511 ft | 461 kts | 76° |
| 2026-04-24 00:21 | 51.89846 | -30.66160 | 30510 ft | 460 kts | 76° |
| 2026-04-24 00:22 | 51.91399 | -30.56202 | 30508 ft | 460 kts | 76° |
| 2026-04-24 00:22 | 51.92949 | -30.46196 | 30506 ft | 459 kts | 76° |
| 2026-04-24 00:23 | 51.94492 | -30.36175 | 30506 ft | 459 kts | 76° |
| 2026-04-24 00:23 | 51.96017 | -30.26210 | 30504 ft | 459 kts | 77° |
| 2026-04-24 00:24 | 51.97549 | -30.16133 | 30500 ft | 459 kts | 77° |
| 2026-04-24 00:24 | 51.99056 | -30.06159 | 30516 ft | 459 kts | 77° |
| 2026-04-24 00:25 | 52.00541 | -29.96116 | 30507 ft | 460 kts | 78° |
| 2026-04-24 00:25 | 52.01995 | -29.86066 | 30504 ft | 458 kts | 78° |
| 2026-04-24 00:26 | 52.03433 | -29.76049 | 30502 ft | 458 kts | 78° |
| 2026-04-24 00:26 | 52.04859 | -29.66050 | 30515 ft | 456 kts | 78° |
| 2026-04-24 00:27 | 52.06285 | -29.55978 | 30507 ft | 457 kts | 78° |
| 2026-04-24 00:27 | 52.07692 | -29.45981 | 30502 ft | 456 kts | 78° |
| 2026-04-24 00:28 | 52.09087 | -29.35996 | 30491 ft | 456 kts | 78° |
| 2026-04-24 00:28 | 52.10480 | -29.25961 | 30485 ft | 455 kts | 79° |
| 2026-04-24 00:29 | 52.11856 | -29.15977 | 30505 ft | 456 kts | 79° |
| 2026-04-24 00:29 | 52.13231 | -29.05941 | 30477 ft | 457 kts | 79° |
| 2026-04-24 00:30 | 52.14588 | -28.95957 | 30492 ft | 455 kts | 80° |
| 2026-04-24 00:30 | 52.15945 | -28.85914 | 30521 ft | 453 kts | 80° |
| 2026-04-24 00:31 | 52.17286 | -28.75919 | 30518 ft | 455 kts | 80° |
| 2026-04-24 00:31 | 52.18616 | -28.65937 | 30495 ft | 455 kts | 80° |
| 2026-04-24 00:32 | 52.19944 | -28.55901 | 30510 ft | 452 kts | 80° |
| 2026-04-24 00:32 | 52.21264 | -28.45851 | 30517 ft | 453 kts | 81° |
| 2026-04-24 00:33 | 52.22562 | -28.35902 | 30507 ft | 453 kts | 80° |
| 2026-04-24 00:33 | 52.23859 | -28.25887 | 30517 ft | 453 kts | 81° |
| 2026-04-24 00:34 | 52.25142 | -28.15907 | 30513 ft | 452 kts | 81° |
| 2026-04-24 00:34 | 52.26427 | -28.05847 | 30521 ft | 453 kts | 81° |
| 2026-04-24 00:35 | 52.27693 | -27.95857 | 30520 ft | 452 kts | 81° |
| 2026-04-24 00:35 | 52.28954 | -27.85841 | 30537 ft | 450 kts | 82° |
| 2026-04-24 00:36 | 52.30205 | -27.75821 | 30534 ft | 453 kts | 82° |
| 2026-04-24 00:36 | 52.31444 | -27.65836 | 30538 ft | 451 kts | 82° |
| 2026-04-24 00:37 | 52.32677 | -27.55819 | 30540 ft | 451 kts | 82° |
| 2026-04-24 00:37 | 52.33897 | -27.45833 | 30521 ft | 450 kts | 82° |
| 2026-04-24 00:38 | 52.35113 | -27.35812 | 30535 ft | 449 kts | 82° |
| 2026-04-24 00:38 | 52.36319 | -27.25791 | 30554 ft | 449 kts | 83° |
| 2026-04-24 00:39 | 52.37511 | -27.15814 | 30558 ft | 449 kts | 83° |
| 2026-04-24 00:39 | 52.38691 | -27.05865 | 30576 ft | 447 kts | 83° |
| 2026-04-24 00:40 | 52.39858 | -26.95936 | 30569 ft | 449 kts | 83° |
| 2026-04-24 00:40 | 52.41021 | -26.85983 | 30563 ft | 446 kts | 83° |
| 2026-04-24 00:41 | 52.42180 | -26.75975 | 30562 ft | 446 kts | 84° |
| 2026-04-24 00:41 | 52.43322 | -26.66041 | 30578 ft | 446 kts | 84° |
| 2026-04-24 00:42 | 52.44460 | -26.56061 | 30596 ft | 445 kts | 84° |
| 2026-04-24 00:42 | 52.45583 | -26.46135 | 30601 ft | 444 kts | 84° |
| 2026-04-24 00:43 | 52.46691 | -26.36270 | 30612 ft | 442 kts | 85° |
| 2026-04-24 00:43 | 52.47789 | -26.26413 | 30627 ft | 442 kts | 85° |
| 2026-04-24 00:44 | 52.48878 | -26.16556 | 30632 ft | 443 kts | 85° |
| 2026-04-24 00:44 | 52.49964 | -26.06643 | 30630 ft | 442 kts | 85° |
| 2026-04-24 00:45 | 52.51039 | -25.96756 | 30635 ft | 441 kts | 86° |
| 2026-04-24 00:45 | 52.52103 | -25.86885 | 30638 ft | 441 kts | 86° |
| 2026-04-24 00:46 | 52.53165 | -25.76958 | 30641 ft | 441 kts | 86° |
| 2026-04-24 00:46 | 52.54207 | -25.67141 | 30640 ft | 438 kts | 86° |
| 2026-04-24 00:47 | 52.55239 | -25.57316 | 30641 ft | 439 kts | 86° |
| 2026-04-24 00:47 | 52.56265 | -25.47485 | 30643 ft | 438 kts | 86° |
| 2026-04-24 00:48 | 52.57283 | -25.37641 | 30645 ft | 437 kts | 86° |
| 2026-04-24 00:48 | 52.58290 | -25.27823 | 30685 ft | 436 kts | 88° |
| 2026-04-24 00:49 | 52.59287 | -25.18018 | 30693 ft | 435 kts | 88° |
| 2026-04-24 00:49 | 52.60276 | -25.08194 | 30705 ft | 438 kts | 88° |
| 2026-04-24 00:50 | 52.61254 | -24.98412 | 30704 ft | 436 kts | 88° |
| 2026-04-24 00:50 | 52.62225 | -24.88617 | 30688 ft | 436 kts | 88° |
| 2026-04-24 00:51 | 52.63190 | -24.78779 | 30701 ft | 438 kts | 88° |
| 2026-04-24 00:51 | 52.64143 | -24.68997 | 30705 ft | 437 kts | 88° |
| 2026-04-24 00:52 | 52.65091 | -24.59165 | 30709 ft | 436 kts | 88° |
| 2026-04-24 00:52 | 52.66033 | -24.49301 | 30720 ft | 437 kts | 89° |
| 2026-04-24 00:53 | 52.66962 | -24.39499 | 30713 ft | 435 kts | 88° |
| 2026-04-24 00:53 | 52.67883 | -24.29693 | 30730 ft | 434 kts | 89° |
| 2026-04-24 00:54 | 52.68789 | -24.19943 | 30733 ft | 436 kts | 89° |
| 2026-04-24 00:54 | 52.69693 | -24.10134 | 30739 ft | 433 kts | 89° |
| 2026-04-24 00:55 | 52.70592 | -24.00281 | 30755 ft | 434 kts | 89° |
| 2026-04-24 00:55 | 52.71479 | -23.90467 | 30762 ft | 436 kts | 89° |
| 2026-04-24 00:56 | 52.72356 | -23.80677 | 30763 ft | 434 kts | 90° |
| 2026-04-24 00:56 | 52.73230 | -23.70807 | 30766 ft | 435 kts | 89° |
| 2026-04-24 00:57 | 52.74073 | -23.61206 | 30774 ft | 439 kts | 89° |
| 2026-04-24 00:58 | 52.75361 | -23.46379 | 30774 ft | 436 kts | 90° |
| 2026-04-24 00:58 | 52.76205 | -23.36507 | 30775 ft | 439 kts | 90° |
| 2026-04-24 00:59 | 52.77049 | -23.26564 | 30785 ft | 437 kts | 90° |
| 2026-04-24 00:59 | 52.77880 | -23.16656 | 30789 ft | 438 kts | 90° |
| 2026-04-24 01:00 | 52.78704 | -23.06745 | 30790 ft | 438 kts | 90° |
| 2026-04-24 01:00 | 52.79523 | -22.96780 | 30807 ft | 438 kts | 90° |
| 2026-04-24 01:01 | 52.80332 | -22.86829 | 30802 ft | 439 kts | 90° |
| 2026-04-24 01:01 | 52.81134 | -22.76857 | 30830 ft | 442 kts | 90° |
| 2026-04-24 01:02 | 52.81932 | -22.66844 | 30822 ft | 439 kts | 90° |
| 2026-04-24 01:02 | 52.82716 | -22.56881 | 30817 ft | 440 kts | 90° |
| 2026-04-24 01:03 | 52.83493 | -22.46915 | 30819 ft | 439 kts | 90° |
| 2026-04-24 01:03 | 52.84264 | -22.36901 | 30835 ft | 440 kts | 90° |
| 2026-04-24 01:04 | 52.85022 | -22.26942 | 30855 ft | 439 kts | 91° |
| 2026-04-24 01:04 | 52.85774 | -22.16964 | 30857 ft | 438 kts | 91° |
| 2026-04-24 01:05 | 52.86519 | -22.06932 | 30849 ft | 440 kts | 91° |
| 2026-04-24 01:05 | 52.87256 | -21.96912 | 30849 ft | 440 kts | 91° |
| 2026-04-24 01:06 | 52.87985 | -21.86886 | 30863 ft | 442 kts | 91° |
| 2026-04-24 01:06 | 52.88709 | -21.76805 | 30864 ft | 441 kts | 91° |
| 2026-04-24 01:07 | 52.89420 | -21.66790 | 30873 ft | 440 kts | 91° |
| 2026-04-24 01:07 | 52.90125 | -21.56688 | 30877 ft | 445 kts | 91° |
| 2026-04-24 01:08 | 52.90824 | -21.46617 | 30874 ft | 443 kts | 91° |
| 2026-04-24 01:08 | 52.91517 | -21.36484 | 30891 ft | 442 kts | 91° |
| 2026-04-24 01:09 | 52.92193 | -21.26456 | 30891 ft | 441 kts | 92° |
| 2026-04-24 01:09 | 52.92863 | -21.16382 | 30911 ft | 443 kts | 92° |
| 2026-04-24 01:10 | 52.93527 | -21.06296 | 30902 ft | 441 kts | 92° |
| 2026-04-24 01:10 | 52.94183 | -20.96156 | 30907 ft | 445 kts | 92° |
| 2026-04-24 01:11 | 52.94832 | -20.86039 | 30899 ft | 443 kts | 91° |
| 2026-04-24 01:11 | 52.95472 | -20.75889 | 30908 ft | 446 kts | 92° |
| 2026-04-24 01:12 | 52.96111 | -20.65627 | 30910 ft | 445 kts | 92° |
| 2026-04-24 01:12 | 52.96735 | -20.55447 | 30927 ft | 448 kts | 92° |
| 2026-04-24 01:13 | 52.97351 | -20.45278 | 30925 ft | 444 kts | 92° |
| 2026-04-24 01:13 | 52.97959 | -20.35059 | 30939 ft | 448 kts | 92° |
| 2026-04-24 01:14 | 52.98561 | -20.24837 | 30941 ft | 446 kts | 93° |
| 2026-04-24 01:14 | 52.99150 | -20.14643 | 30950 ft | 449 kts | 93° |
| 2026-04-24 01:15 | 52.99734 | -20.04403 | 30953 ft | 448 kts | 93° |
| 2026-04-24 01:15 | 53.00064 | -19.94151 | 30956 ft | 445 kts | 96° |
| 2026-04-24 01:16 | 53.00290 | -19.83888 | 30958 ft | 444 kts | 96° |
| 2026-04-24 01:16 | 53.00496 | -19.73709 | 30968 ft | 444 kts | 96° |
| 2026-04-24 01:17 | 53.00688 | -19.63444 | 30967 ft | 447 kts | 96° |
| 2026-04-24 01:17 | 53.00870 | -19.53165 | 30970 ft | 448 kts | 95° |
| 2026-04-24 01:18 | 53.01043 | -19.42916 | 30976 ft | 447 kts | 95° |
| 2026-04-24 01:18 | 53.01206 | -19.32556 | 30983 ft | 449 kts | 96° |
| 2026-04-24 01:19 | 53.01360 | -19.22330 | 30985 ft | 445 kts | 96° |
| 2026-04-24 01:19 | 53.01502 | -19.12047 | 30996 ft | 450 kts | 96° |
| 2026-04-24 01:20 | 53.01640 | -19.01710 | 30997 ft | 448 kts | 96° |
| 2026-04-24 01:20 | 53.01766 | -18.91409 | 30996 ft | 448 kts | 96° |
| 2026-04-24 01:21 | 53.01884 | -18.81122 | 30999 ft | 448 kts | 96° |
| 2026-04-24 01:21 | 53.01992 | -18.70800 | 31007 ft | 448 kts | 96° |
| 2026-04-24 01:22 | 53.02093 | -18.60522 | 30999 ft | 447 kts | 96° |
| 2026-04-24 01:22 | 53.02183 | -18.50240 | 31004 ft | 449 kts | 96° |
| 2026-04-24 01:23 | 53.02266 | -18.39887 | 30993 ft | 449 kts | 96° |
| 2026-04-24 01:23 | 53.02339 | -18.29620 | 31007 ft | 449 kts | 97° |
| 2026-04-24 01:24 | 53.02404 | -18.19229 | 30990 ft | 450 kts | 97° |
| 2026-04-24 01:24 | 53.02460 | -18.08892 | 31004 ft | 449 kts | 97° |
| 2026-04-24 01:25 | 53.02506 | -17.98589 | 31010 ft | 450 kts | 97° |
| 2026-04-24 01:25 | 53.02543 | -17.88238 | 31019 ft | 451 kts | 97° |
| 2026-04-24 01:26 | 53.02572 | -17.77904 | 31015 ft | 450 kts | 97° |
| 2026-04-24 01:26 | 53.02591 | -17.67478 | 31024 ft | 453 kts | 97° |
| 2026-04-24 01:27 | 53.02596 | -17.64053 | 31027 ft | 452 kts | 97° |